Time;durP1;ratioP1;P1;durP2;ratioP2;P2;SDS_P1;SDS_P2;PMS_P1;PMS_P2;Temp;Humidity;BMP_temperature;BMP_pressure;BME280_temperature;BME280_humidity;BME280_pressure;Samples;Min_cycle;Max_cycle;Signal;HPM_P1;HPM_P2
2022/01/09 00:00:42;;;;;;;;;;;;;;;-1.58;100.00;99443.67;1754534;82;21046;-67
2022/01/09 00:03:08;;;;;;;13.18;6.62;;;;;;;-1.59;100.00;99444.69;1749283;82;20139;-67
2022/01/09 00:05:35;;;;;;;11.10;6.15;;;;;;;-1.65;100.00;99441.49;1746760;82;21042;-67
2022/01/09 00:08:01;;;;;;;11.68;6.55;;;;;;;-1.64;100.00;99434.31;1743764;82;21069;-67
2022/01/09 00:10:29;;;;;;;12.58;6.80;;;;;;;-1.65;100.00;99436.66;1750515;82;21070;-67
2022/01/09 00:12:57;;;;;;;24.80;10.53;;;;;;;-1.63;100.00;99434.63;1710851;83;21081;-67
2022/01/09 00:15:23;;;;;;;14.25;6.85;;;;;;;-1.63;100.00;99434.63;1721139;82;21790;-67
2022/01/09 00:17:50;;;;;;;14.43;6.40;;;;;;;-1.62;100.00;99433.08;1713421;82;21095;-67
2022/01/09 00:20:16;;;;;;;11.22;6.30;;;;;;;-1.61;100.00;99422.72;1753064;80;21459;-66
2022/01/09 00:22:52;;;;;;;12.20;6.03;;;;;;;-1.60;100.00;99416.88;1747176;80;21099;-67
2022/01/09 00:25:20;;;;;;;11.12;5.72;;;;;;;-1.62;100.00;99414.91;1752486;81;21047;-66
2022/01/09 00:27:47;;;;;;;14.47;5.97;;;;;;;-1.62;100.00;99417.06;1752161;82;21090;-67
2022/01/09 00:30:15;;;;;;;10.45;5.65;;;;;;;-1.61;100.00;99406.70;1748095;82;21055;-67
2022/01/09 00:32:42;;;;;;;11.50;6.08;;;;;;;-1.61;100.00;99404.55;1750262;81;22049;-67
2022/01/09 00:35:09;;;;;;;10.45;5.35;;;;;;;-1.61;100.00;99405.87;1751460;81;21015;-67
2022/01/09 00:37:36;;;;;;;10.23;5.33;;;;;;;-1.63;100.00;99403.94;1749455;82;21505;-67
2022/01/09 00:40:05;;;;;;;14.23;6.12;;;;;;;-1.65;100.00;99404.63;1754572;82;21357;-67
2022/01/09 00:42:31;;;;;;;10.18;5.00;;;;;;;-1.67;100.00;99396.84;1747872;82;21382;-66
2022/01/09 00:44:59;;;;;;;15.65;8.70;;;;;;;-1.70;100.00;99388.42;1742821;82;21486;-67
2022/01/09 00:47:25;;;;;;;9.20;4.90;;;;;;;-1.71;100.00;99388.10;1748137;82;21553;-67
2022/01/09 00:49:52;;;;;;;8.60;5.00;;;;;;;-1.71;100.00;99390.27;1748067;82;21071;-66
2022/01/09 00:52:18;;;;;;;10.70;4.70;;;;;;;-1.69;100.00;99386.87;1747575;81;21533;-67
2022/01/09 00:54:45;;;;;;;8.93;4.90;;;;;;;-1.69;100.00;99376.19;1746411;81;21059;-67
2022/01/09 00:57:11;;;;;;;10.08;4.62;;;;;;;-1.73;100.00;99369.61;1746331;81;21984;-67
2022/01/09 00:59:38;;;;;;;8.35;4.47;;;;;;;-1.74;100.00;99361.31;1747567;82;21007;-66
2022/01/09 01:02:04;;;;;;;10.03;4.97;;;;;;;-1.73;100.00;99346.92;1748020;82;21552;-67
2022/01/09 01:04:31;;;;;;;10.13;4.67;;;;;;;-1.76;100.00;99342.00;1751330;82;21374;-66
2022/01/09 01:06:57;;;;;;;10.80;4.85;;;;;;;-1.77;100.00;99340.88;1747072;81;21546;-66
2022/01/09 01:09:25;;;;;;;9.40;4.58;;;;;;;-1.77;100.00;99332.88;1732303;82;21060;-67
2022/01/09 01:11:53;;;;;;;8.75;4.97;;;;;;;-1.79;100.00;99326.39;1739972;82;21027;-66
2022/01/09 01:14:23;;;;;;;9.73;4.83;;;;;;;-1.79;100.00;99322.90;1748156;82;20980;-67
2022/01/09 01:16:50;;;;;;;10.63;5.33;;;;;;;-1.82;100.00;99305.97;1739892;81;21031;-66
2022/01/09 01:19:18;;;;;;;11.10;5.10;;;;;;;-1.86;100.00;99308.22;1740309;82;20987;-67
2022/01/09 01:21:44;;;;;;;8.63;4.90;;;;;;;-1.88;100.00;99310.78;1739564;82;21016;-66
2022/01/09 01:24:10;;;;;;;8.65;4.70;;;;;;;-1.91;100.00;99305.32;1746484;82;20974;-66
2022/01/09 01:26:38;;;;;;;11.48;4.75;;;;;;;-1.95;100.00;99309.44;1742442;82;21534;-67
2022/01/09 01:29:04;;;;;;;8.50;5.25;;;;;;;-1.98;100.00;99305.81;1742156;82;21099;-67
2022/01/09 01:31:32;;;;;;;10.82;5.03;;;;;;;-2.01;100.00;99306.22;1741768;82;21609;-66
2022/01/09 01:33:58;;;;;;;9.00;5.03;;;;;;;-2.06;100.00;99296.18;1742941;82;21060;-67
2022/01/09 01:36:25;;;;;;;11.05;5.95;;;;;;;-2.04;100.00;99302.13;1737002;82;21078;-67
2022/01/09 01:38:51;;;;;;;;;;;;;;;-2.07;100.00;99296.38;1744709;82;21084;-67
2022/01/09 01:41:18;;;;;;;9.80;4.80;;;;;;;-2.09;100.00;99293.09;1739837;82;20107;-66
2022/01/09 01:43:44;;;;;;;13.80;5.72;;;;;;;-2.15;100.00;99292.55;1734434;81;21032;-67
2022/01/09 01:46:10;;;;;;;10.45;5.05;;;;;;;-2.15;100.00;99283.20;1737234;82;21520;-66
2022/01/09 01:48:37;;;;;;;9.60;5.17;;;;;;;-2.18;100.00;99284.95;1745150;82;21062;-66
2022/01/09 01:51:04;;;;;;;10.98;5.22;;;;;;;-2.20;100.00;99279.01;1741071;82;21019;-67
2022/01/09 01:53:31;;;;;;;9.98;5.60;;;;;;;-2.23;100.00;99278.08;1734829;81;21645;-66
2022/01/09 01:56:00;;;;;;;11.08;5.08;;;;;;;-2.27;100.00;99272.33;1740808;82;21047;-67
2022/01/09 01:58:26;;;;;;;12.15;5.90;;;;;;;-2.29;100.00;99267.69;1705271;82;21585;-67
2022/01/09 02:00:53;;;;;;;9.43;4.87;;;;;;;-2.28;100.00;99264.52;1738963;82;21040;-66
2022/01/09 02:03:20;;;;;;;;;;;;;;;-2.32;100.00;99262.77;1746445;82;21039;-67
2022/01/09 02:05:46;;;;;;;12.18;5.33;;;;;;;-2.34;100.00;99260.82;1741797;82;20107;-66
2022/01/09 02:08:12;;;;;;;;;;;;;;;-2.38;100.00;99257.41;1743874;81;21099;-67
2022/01/09 02:10:44;;;;;;;9.58;5.33;;;;;;;-2.37;100.00;99251.87;1740817;82;20104;-67
2022/01/09 02:13:11;;;;;;;11.43;5.65;;;;;;;-2.39;100.00;99249.92;1740624;81;21062;-67
2022/01/09 02:15:46;;;;;;;10.82;5.87;;;;;;;-2.38;100.00;99246.25;1743732;82;21015;-66
2022/01/09 02:18:19;;;;;;;12.53;6.17;;;;;;;-2.34;100.00;99246.16;1744564;82;21121;-67
2022/01/09 02:20:45;;;;;;;12.03;6.12;;;;;;;-2.35;100.00;99246.34;1745942;82;21043;-67
2022/01/09 02:23:13;;;;;;;13.48;6.47;;;;;;;-2.38;100.00;99236.92;1748111;82;21444;-66
2022/01/09 02:25:40;;;;;;;12.35;5.87;;;;;;;-2.37;100.00;99235.08;1749380;81;21542;-67
2022/01/09 02:28:07;;;;;;;12.07;6.45;;;;;;;-2.38;100.00;99241.42;1746701;81;21071;-66
2022/01/09 02:30:34;;;;;;;13.55;6.25;;;;;;;-2.39;100.00;99238.44;1745322;82;21007;-67
2022/01/09 02:33:01;;;;;;;14.43;6.17;;;;;;;-2.41;100.00;99235.98;1748261;81;21068;-67
2022/01/09 02:35:27;;;;;;;10.70;5.92;;;;;;;-2.46;100.00;99233.09;1752782;81;21055;-67
2022/01/09 02:37:54;;;;;;;11.97;5.90;;;;;;;-2.52;100.00;99229.39;1747299;81;21530;-68
2022/01/09 02:40:22;;;;;;;13.98;6.83;;;;;;;-2.57;100.00;99223.83;1746081;82;21035;-67
2022/01/09 02:42:51;;;;;;;15.08;7.40;;;;;;;-2.63;100.00;99222.48;1749494;82;21078;-67
2022/01/09 02:45:21;;;;;;;11.63;6.45;;;;;;;-2.70;100.00;99218.97;1749505;81;21043;-66
2022/01/09 02:47:47;;;;;;;13.93;7.30;;;;;;;-2.70;100.00;99214.97;1747112;82;21027;-67
2022/01/09 02:52:53;;;;;;;11.57;6.22;;;;;;;-2.72;100.00;99204.50;1751616;82;21055;-66
2022/01/09 02:55:18;;;;;;;14.23;6.80;;;;;;;-2.73;100.00;99193.52;1714837;83;21578;-67
2022/01/09 02:57:51;;;;;;;11.43;5.75;;;;;;;-2.70;100.00;99198.98;1747535;82;21067;-66
2022/01/09 03:00:24;;;;;;;14.07;6.70;;;;;;;-2.71;100.00;99192.00;1715743;82;20980;-67
2022/01/09 03:02:50;;;;;;;10.30;5.87;;;;;;;-2.72;100.00;99193.84;1754002;81;21128;-67
2022/01/09 03:05:17;;;;;;;12.47;6.03;;;;;;;-2.72;100.00;99187.19;1722097;83;21046;-67
2022/01/09 03:07:43;;;;;;;13.65;6.70;;;;;;;-2.72;100.00;99187.19;1707246;82;21157;-67
2022/01/09 03:10:11;;;;;;;13.05;6.50;;;;;;;-2.74;100.00;99185.24;1717614;83;21051;-66
2022/01/09 03:12:39;;;;;;;11.70;6.55;;;;;;;-2.75;100.00;99181.44;1750637;81;21082;-67
2022/01/09 03:15:06;;;;;;;13.38;7.08;;;;;;;-2.75;100.00;99174.77;1732815;80;21042;-67
2022/01/09 03:17:33;;;;;;;13.90;6.45;;;;;;;-2.76;100.00;99169.95;1738384;81;21054;-67
2022/01/09 03:20:00;;;;;;;13.05;7.15;;;;;;;-2.74;100.00;99172.42;1730832;82;21529;-67
2022/01/09 03:22:26;;;;;;;11.90;6.40;;;;;;;-2.78;100.00;99167.19;1733178;81;21050;-67
2022/01/09 03:24:53;;;;;;;11.73;6.85;;;;;;;-2.79;100.00;99167.69;1705821;84;21518;-67
2022/01/09 03:27:19;;;;;;;13.25;7.20;;;;;;;-2.79;100.00;99162.36;1708725;83;21071;-68
2022/01/09 03:29:46;;;;;;;13.35;6.67;;;;;;;-2.77;100.00;99157.67;1732415;81;21486;-67
2022/01/09 03:32:12;;;;;;;13.83;6.72;;;;;;;-2.75;100.00;99164.11;1736217;82;21034;-67
2022/01/09 03:34:38;;;;;;;16.15;7.00;;;;;;;-2.76;100.00;99156.63;1730265;83;21825;-67
2022/01/09 03:37:05;;;;;;;16.80;7.28;;;;;;;-2.78;100.00;99160.02;1731844;82;21054;-67
2022/01/09 03:39:31;;;;;;;14.63;7.28;;;;;;;-2.77;100.00;99161.67;1735045;82;21533;-66
2022/01/09 03:41:59;;;;;;;15.30;7.90;;;;;;;-2.73;100.00;99161.55;1740157;82;21005;-66
2022/01/09 03:44:26;;;;;;;12.55;7.03;;;;;;;-2.73;100.00;99162.09;1734517;81;21007;-67
2022/01/09 03:46:53;;;;;;;13.90;7.50;;;;;;;-2.72;100.00;99155.72;1731269;82;21580;-67
2022/01/09 03:49:20;;;;;;;15.40;7.12;;;;;;;-2.71;100.00;99153.38;1706704;84;21501;-67
2022/01/09 03:51:50;;;;;;;;;;;;;;;-2.72;100.00;99147.73;1739039;81;21022;-66
2022/01/09 03:54:15;;;;;;;;;;;;;;;-2.70;100.00;99151.03;1744692;82;20107;-67
2022/01/09 03:56:41;;;;;;;13.05;7.35;;;;;;;-2.77;100.00;99147.02;1737267;82;20106;-67
2022/01/09 03:59:08;;;;;;;13.03;7.00;;;;;;;-2.80;100.00;99145.27;1734465;82;21066;-67
2022/01/09 04:01:34;;;;;;;12.63;7.60;;;;;;;-2.84;100.00;99136.85;1709713;83;21565;-67
2022/01/09 04:04:00;;;;;;;16.37;7.75;;;;;;;-2.84;100.00;99136.03;1730618;82;21419;-66
2022/01/09 04:06:27;;;;;;;14.95;7.65;;;;;;;-2.86;100.00;99134.06;1714690;84;21560;-67
2022/01/09 04:08:53;;;;;;;14.15;7.53;;;;;;;-2.87;100.00;99137.23;1731609;82;21190;-67
2022/01/09 04:11:27;;;;;;;12.82;7.17;;;;;;;-2.87;100.00;99131.91;1743732;82;21557;-66
2022/01/09 04:13:52;;;;;;;17.65;8.00;;;;;;;-2.85;100.00;99125.05;1742819;82;21130;-67
2022/01/09 04:16:18;;;;;;;;;;;;;;;-2.84;100.00;99128.86;1741386;82;21095;-66
2022/01/09 04:18:45;;;;;;;17.77;8.78;;;;;;;-2.85;100.00;99113.89;1741909;82;20127;-67
2022/01/09 04:21:13;;;;;;;13.93;7.85;;;;;;;-2.90;100.00;99120.32;1739433;82;21052;-67
2022/01/09 04:23:39;;;;;;;17.23;8.55;;;;;;;-2.90;100.00;99120.83;1739412;82;21098;-67
2022/01/09 04:26:06;;;;;;;19.60;8.60;;;;;;;-2.92;100.00;99106.39;1740088;82;21090;-67
2022/01/09 04:28:33;;;;;;;18.65;8.40;;;;;;;-2.92;100.00;99106.39;1731021;82;21145;-67
2022/01/09 04:30:59;;;;;;;18.05;8.78;;;;;;;-2.91;100.00;99113.38;1738066;82;21039;-67
2022/01/09 04:33:25;;;;;;;18.15;9.58;;;;;;;-2.90;100.00;99104.34;1744773;82;21039;-67
2022/01/09 04:35:52;;;;;;;17.48;9.38;;;;;;;-2.89;100.00;99105.99;1740094;82;21044;-67
2022/01/09 04:38:18;;;;;;;17.98;8.93;;;;;;;-2.88;100.00;99101.48;1743835;81;21022;-67
2022/01/09 04:40:44;;;;;;;18.60;9.05;;;;;;;-2.85;100.00;99095.75;1741203;82;21015;-66
2022/01/09 04:43:12;;;;;;;15.90;8.68;;;;;;;-2.88;100.00;99091.66;1739560;82;21044;-67
2022/01/09 04:45:39;;;;;;;13.88;7.92;;;;;;;-2.90;100.00;99091.02;1740831;82;20992;-67
2022/01/09 04:48:08;;;;;;;18.23;8.28;;;;;;;-2.89;100.00;99079.36;1744669;82;21541;-66
2022/01/09 04:50:36;;;;;;;17.40;8.93;;;;;;;-2.90;100.00;99072.38;1744173;82;21031;-67
2022/01/09 04:53:05;;;;;;;16.00;8.43;;;;;;;-2.90;100.00;99064.89;1742441;82;21094;-66
2022/01/09 04:55:34;;;;;;;18.35;9.55;;;;;;;-2.89;100.00;99069.20;1743513;82;21498;-66
2022/01/09 04:58:00;;;;;;;22.80;9.48;;;;;;;-2.94;100.00;99065.02;1738085;82;21531;-67
2022/01/09 05:00:26;;;;;;;17.32;8.83;;;;;;;-2.92;100.00;99060.30;1739972;82;21023;-67
2022/01/09 05:02:53;;;;;;;16.65;8.20;;;;;;;-2.94;100.00;99055.70;1745516;82;21751;-67
2022/01/09 05:05:19;;;;;;;17.30;8.98;;;;;;;-2.94;100.00;99050.37;1741920;82;21015;-67
2022/01/09 05:07:46;;;;;;;15.80;8.38;;;;;;;-2.94;100.00;99048.50;1742801;82;21643;-67
2022/01/09 05:10:14;;;;;;;16.90;8.85;;;;;;;-2.93;100.00;99048.81;1742035;82;21090;-67
2022/01/09 05:12:40;;;;;;;19.90;10.35;;;;;;;-2.92;100.00;99039.81;1742009;82;21102;-67
2022/01/09 05:15:08;;;;;;;21.52;9.78;;;;;;;-2.92;100.00;99048.31;1738068;82;20972;-67
2022/01/09 05:17:35;;;;;;;16.57;9.05;;;;;;;-2.91;100.00;99048.63;1743174;82;21071;-66
2022/01/09 05:20:02;;;;;;;18.73;8.80;;;;;;;-2.93;100.00;99031.51;1739806;82;20984;-67
2022/01/09 05:22:28;;;;;;;18.37;9.43;;;;;;;-2.94;100.00;99043.17;1740115;82;21060;-67
2022/01/09 05:24:57;;;;;;;22.82;8.93;;;;;;;-2.93;100.00;99039.50;1741560;82;21486;-67
2022/01/09 05:27:23;;;;;;;17.40;9.33;;;;;;;-2.92;100.00;99041.66;1744788;80;21083;-67
2022/01/09 05:29:50;;;;;;;18.75;9.25;;;;;;;-2.93;100.00;99035.50;1741223;82;21035;-66
2022/01/09 05:32:16;;;;;;;21.10;9.45;;;;;;;-2.91;100.00;99029.98;1737984;82;21024;-66
2022/01/09 05:34:43;;;;;;;20.50;9.10;;;;;;;-2.88;100.00;99023.74;1715115;82;21008;-67
2022/01/09 05:37:09;;;;;;;15.90;8.53;;;;;;;-2.87;100.00;99017.37;1701883;82;21075;-67
2022/01/09 05:39:36;;;;;;;18.70;9.45;;;;;;;-2.87;100.00;99008.59;1694666;82;21042;-67
2022/01/09 05:42:05;;;;;;;19.40;9.15;;;;;;;-2.89;100.00;99008.78;1744761;81;21070;-67
2022/01/09 05:44:32;;;;;;;17.62;9.63;;;;;;;-2.89;100.00;99007.44;1710726;83;21043;-67
2022/01/09 05:46:59;;;;;;;17.90;9.38;;;;;;;-2.88;100.00;99005.09;1740147;80;21534;-67
2022/01/09 05:49:27;;;;;;;18.05;9.90;;;;;;;-2.87;100.00;98998.73;1739504;82;21573;-67
2022/01/09 05:51:53;;;;;;;18.73;9.85;;;;;;;-2.87;100.00;99000.06;1737748;82;21043;-67
2022/01/09 05:54:19;;;;;;;17.48;9.40;;;;;;;-2.83;100.00;99003.13;1741563;82;21942;-67
2022/01/09 05:56:47;;;;;;;19.20;9.68;;;;;;;-2.81;100.00;99001.11;1737785;80;21027;-67
2022/01/09 05:59:13;;;;;;;18.40;9.80;;;;;;;-2.82;100.00;98995.46;1745239;80;20979;-67
2022/01/09 06:01:40;;;;;;;18.90;9.68;;;;;;;-2.82;100.00;98994.95;1740349;82;21526;-66
2022/01/09 06:04:06;;;;;;;16.87;9.70;;;;;;;-2.78;100.00;98991.37;1739094;82;21040;-66
2022/01/09 06:06:33;;;;;;;18.35;10.03;;;;;;;-2.78;100.00;98990.04;1741682;80;21042;-66
2022/01/09 06:08:59;;;;;;;16.73;9.13;;;;;;;-2.80;100.00;98979.58;1734874;80;21044;-66
2022/01/09 06:11:26;;;;;;;;;;;;;;;-2.78;100.00;98976.72;1742371;82;21035;-66
2022/01/09 06:13:52;;;;;;;19.77;9.03;;;;;;;-2.79;100.00;98979.89;1739546;81;20158;-67
2022/01/09 06:16:19;;;;;;;17.10;9.30;;;;;;;-2.81;100.00;98987.78;1742395;82;21059;-67
2022/01/09 06:18:46;;;;;;;16.62;9.25;;;;;;;-2.81;100.00;98983.28;1747653;80;21027;-67
2022/01/09 06:21:14;;;;;;;19.60;11.20;;;;;;;-2.79;100.00;98990.55;1746781;82;21003;-66
2022/01/09 06:23:40;;;;;;;16.97;9.28;;;;;;;-2.75;100.00;98990.95;1752008;82;21081;-66
2022/01/09 06:26:06;;;;;;;17.30;9.73;;;;;;;-2.74;100.00;98992.09;1738396;82;21003;-67
2022/01/09 06:28:33;;;;;;;21.55;9.43;;;;;;;-2.72;100.00;98987.37;1751757;80;21035;-67
2022/01/09 06:31:00;;;;;;;20.10;9.73;;;;;;;-2.70;100.00;98988.00;1753231;82;20990;-67
2022/01/09 06:33:26;;;;;;;15.93;9.58;;;;;;;-2.69;100.00;98986.95;1737315;81;21072;-67
2022/01/09 06:35:52;;;;;;;15.25;8.95;;;;;;;-2.66;100.00;98985.75;1747743;82;20983;-67
2022/01/09 06:38:19;;;;;;;16.52;8.48;;;;;;;-2.65;100.00;98988.19;1741288;80;21622;-67
2022/01/09 06:40:46;;;;;;;15.88;9.48;;;;;;;-2.63;100.00;98984.83;1743741;82;21051;-67
2022/01/09 06:43:12;;;;;;;17.00;9.15;;;;;;;-2.62;100.00;98978.45;1746044;82;21066;-67
2022/01/09 06:45:38;;;;;;;20.75;10.00;;;;;;;-2.62;100.00;98970.97;1737469;80;21060;-67
2022/01/09 06:48:05;;;;;;;16.45;8.75;;;;;;;-2.63;100.00;98967.51;1737203;80;21062;-67
2022/01/09 06:50:31;;;;;;;16.62;9.15;;;;;;;-2.61;100.00;98973.44;1748567;82;20999;-68
2022/01/09 06:52:57;;;;;;;20.82;10.38;;;;;;;-2.58;100.00;98970.36;1747406;81;21564;-67
2022/01/09 06:55:24;;;;;;;16.75;9.73;;;;;;;-2.57;100.00;98965.84;1752912;82;21026;-68
2022/01/09 06:57:50;;;;;;;15.38;8.30;;;;;;;-2.54;100.00;98974.76;1745301;82;21086;-67
2022/01/09 07:00:18;;;;;;;16.27;9.53;;;;;;;-2.53;100.00;98971.08;1746505;80;20995;-67
2022/01/09 07:02:45;;;;;;;16.17;8.68;;;;;;;-2.52;100.00;98970.88;1714144;84;21134;-67
2022/01/09 07:05:11;;;;;;;15.78;9.65;;;;;;;-2.50;100.00;98973.33;1742373;82;21546;-66
2022/01/09 07:07:38;;;;;;;19.95;10.00;;;;;;;-2.47;100.00;98965.42;1750438;82;21071;-66
2022/01/09 07:10:08;;;;;;;18.57;9.55;;;;;;;-2.45;100.00;98963.39;1744318;82;20976;-67
2022/01/09 07:12:34;;;;;;;20.70;10.70;;;;;;;-2.44;100.00;98965.03;1753200;80;21031;-67
2022/01/09 07:15:02;;;;;;;17.57;9.75;;;;;;;-2.44;100.00;98957.83;1752161;81;21550;-67
2022/01/09 07:17:28;;;;;;;15.28;8.35;;;;;;;-2.40;100.00;98951.58;1749987;81;21054;-67
2022/01/09 07:19:55;;;;;;;20.85;12.73;;;;;;;-2.40;100.00;98946.24;1745950;81;21022;-65
2022/01/09 07:22:21;;;;;;;18.07;9.25;;;;;;;-2.40;100.00;98947.06;1750040;81;21612;-67
2022/01/09 07:24:47;;;;;;;18.02;9.10;;;;;;;-2.37;100.00;98945.31;1748992;82;21002;-67
2022/01/09 07:27:13;;;;;;;16.65;8.55;;;;;;;-2.35;100.00;98948.61;1749598;81;21055;-67
2022/01/09 07:29:41;;;;;;;18.02;9.48;;;;;;;-2.31;100.00;98945.02;1748571;81;21507;-67
2022/01/09 07:32:08;;;;;;;17.10;9.23;;;;;;;-2.31;100.00;98943.17;1749192;80;21035;-67
2022/01/09 07:34:34;;;;;;;18.23;9.88;;;;;;;-2.28;100.00;98940.59;1751754;82;20998;-67
2022/01/09 07:37:01;;;;;;;;;;;;;;;-2.29;100.00;98939.77;1756317;82;20999;-67
2022/01/09 07:39:28;;;;;;;17.15;9.23;;;;;;;-2.28;100.00;98937.42;1755758;81;20107;-67
2022/01/09 07:41:57;;;;;;;16.02;8.85;;;;;;;-2.28;100.00;98931.27;1734097;82;21048;-66
2022/01/09 07:44:24;;;;;;;17.55;8.68;;;;;;;-2.24;100.00;98932.48;1730489;82;21047;-67
2022/01/09 07:46:50;;;;;;;15.58;9.63;;;;;;;-2.23;100.00;98932.80;1747733;81;21082;-66
2022/01/09 07:49:16;;;;;;;17.27;9.40;;;;;;;-2.20;100.00;98928.38;1757316;81;21015;-67
2022/01/09 07:51:44;;;;;;;16.05;9.28;;;;;;;-2.15;100.00;98932.55;1756897;80;21023;-65
2022/01/09 07:54:11;;;;;;;16.07;9.35;;;;;;;-2.13;100.00;98926.51;1751000;82;21011;-66
2022/01/09 07:56:38;;;;;;;16.57;9.15;;;;;;;-2.10;100.00;98932.75;1754306;80;21470;-67
2022/01/09 07:59:04;;;;;;;15.08;9.20;;;;;;;-2.08;100.00;98924.84;1750139;81;21055;-68
2022/01/09 08:01:31;;;;;;;15.08;8.48;;;;;;;-2.06;100.00;98928.64;1747719;82;21039;-67
2022/01/09 08:03:57;;;;;;;15.78;9.00;;;;;;;-2.02;100.00;98931.98;1748511;82;21027;-67
2022/01/09 08:06:24;;;;;;;15.63;9.35;;;;;;;-2.00;100.00;98926.45;1748781;81;21043;-67
2022/01/09 08:08:50;;;;;;;17.48;9.50;;;;;;;-1.97;100.00;98920.70;1755136;81;21553;-68
2022/01/09 08:11:18;;;;;;;14.70;8.40;;;;;;;-1.93;100.00;98913.09;1752131;81;21007;-67
2022/01/09 08:13:44;;;;;;;12.75;8.18;;;;;;;-1.88;100.00;98917.29;1744742;81;21056;-68
2022/01/09 08:16:10;;;;;;;;;;;;;;;-1.86;100.00;98908.55;1762997;80;21462;-68
2022/01/09 08:18:37;;;;;;;13.50;7.80;;;;;;;-1.83;100.00;98901.45;1759606;80;20130;-67
2022/01/09 08:21:03;;;;;;;15.45;8.95;;;;;;;-1.86;100.00;98908.55;1715347;83;21151;-67
2022/01/09 08:23:30;;;;;;;16.30;9.33;;;;;;;-1.84;100.00;98904.63;1721042;83;21045;-67
2022/01/09 08:25:56;;;;;;;13.85;8.23;;;;;;;-1.78;100.00;98905.13;1692682;85;21071;-67
2022/01/09 08:28:22;;;;;;;17.67;8.88;;;;;;;-1.77;100.00;98896.62;1707179;83;21604;-67
2022/01/09 08:33:00;;;;;;;16.10;8.75;;;;;;;-1.74;100.00;98889.52;1771428;78;23307;-65
2022/01/09 08:35:26;;;;;;;13.90;8.78;;;;;;;-1.78;100.00;98893.64;1725394;82;21043;-68
2022/01/09 08:37:53;;;;;;;17.10;9.10;;;;;;;-1.74;100.00;98893.01;1725856;82;21616;-66
2022/01/09 08:40:22;;;;;;;15.13;8.55;;;;;;;-1.74;100.00;98883.67;1745572;82;21047;-66
2022/01/09 08:42:50;;;;;;;12.18;8.10;;;;;;;-1.72;100.00;98882.92;1729454;82;21034;-68
2022/01/09 08:45:17;;;;;;;16.32;9.23;;;;;;;-1.73;100.00;98871.94;1723676;82;21019;-66
2022/01/09 08:47:43;;;;;;;;;;;;;;;-1.72;100.00;98873.59;1725736;83;21545;-66
2022/01/09 08:50:11;;;;;;;15.50;9.25;;;;;;;-1.73;100.00;98865.27;1725081;82;20470;-67
2022/01/09 08:52:37;;;;;;;18.40;9.73;;;;;;;-1.75;100.00;98851.34;1733145;82;21110;-67
2022/01/09 08:55:05;;;;;;;16.70;10.23;;;;;;;-1.72;100.00;98837.56;1733427;82;21005;-68
2022/01/09 08:57:32;;;;;;;19.17;10.85;;;;;;;-1.67;100.00;98843.59;1723022;83;21055;-68
2022/01/09 08:59:58;;;;;;;17.00;10.50;;;;;;;-1.62;100.00;98843.25;1727704;82;21042;-67
2022/01/09 09:02:24;;;;;;;18.02;10.55;;;;;;;-1.59;100.00;98836.65;1737443;82;21047;-66
2022/01/09 09:04:51;;;;;;;20.55;10.90;;;;;;;-1.53;100.00;98838.48;1736233;82;21511;-67
2022/01/09 09:07:23;;;;;;;17.73;10.18;;;;;;;-1.50;100.00;98842.05;1737707;82;21554;-67
2022/01/09 09:09:48;;;;;;;19.15;11.20;;;;;;;-1.48;100.00;98841.81;1743066;82;21018;-66
2022/01/09 09:12:17;;;;;;;20.80;12.25;;;;;;;-1.46;100.00;98823.23;1741215;82;20996;-67
2022/01/09 09:14:46;;;;;;;20.60;11.78;;;;;;;-1.43;100.00;98821.97;1727881;82;20999;-67
2022/01/09 09:17:13;;;;;;;17.82;10.80;;;;;;;-1.42;100.00;98827.11;1747653;81;21110;-67
2022/01/09 09:19:40;;;;;;;22.98;13.68;;;;;;;-1.39;100.00;98825.84;1735805;82;20979;-66
2022/01/09 09:22:06;;;;;;;19.23;11.68;;;;;;;-1.38;100.00;98811.48;1715526;83;21061;-66
2022/01/09 09:24:32;;;;;;;19.10;12.33;;;;;;;-1.35;100.00;98810.52;1705713;84;21011;-65
2022/01/09 09:27:00;;;;;;;22.67;13.32;;;;;;;-1.33;100.00;98812.95;1684507;84;21403;-67
2022/01/09 09:29:26;;;;;;;21.55;12.78;;;;;;;-1.36;100.00;98804.05;1692362;84;21014;-68
2022/01/09 09:31:53;;;;;;;;;;;;;;;-1.39;100.00;98793.30;1708383;83;21083;-68
2022/01/09 09:34:19;;;;;;;21.95;13.55;;;;;;;-1.42;100.00;98796.41;1702413;83;20170;-68
2022/01/09 09:36:47;;;;;;;21.60;13.95;;;;;;;-1.47;100.00;98796.74;1686656;84;21611;-67
2022/01/09 09:39:14;;;;;;;21.15;12.95;;;;;;;-1.46;100.00;98800.55;1662842;85;20955;-67
2022/01/09 09:41:41;;;;;;;24.40;15.40;;;;;;;-1.41;100.00;98802.54;1700260;84;21077;-67
2022/01/09 09:44:09;;;;;;;23.35;14.05;;;;;;;-1.40;100.00;98790.83;1707867;84;21604;-67
2022/01/09 09:46:37;;;;;;;24.27;14.30;;;;;;;-1.41;100.00;98779.33;1701728;84;21461;-67
2022/01/09 09:49:03;;;;;;;21.35;13.20;;;;;;;-1.38;100.00;98786.11;1714352;84;21101;-67
2022/01/09 09:51:30;;;;;;;20.97;13.00;;;;;;;-1.40;100.00;98789.50;1690378;84;21039;-67
2022/01/09 09:53:57;;;;;;;21.12;12.70;;;;;;;-1.41;100.00;98789.19;1697050;83;21081;-67
2022/01/09 09:56:23;;;;;;;19.80;12.18;;;;;;;-1.41;100.00;98782.52;1702442;84;21043;-67
2022/01/09 09:58:51;;;;;;;22.82;12.90;;;;;;;-1.41;100.00;98783.85;1701346;83;21002;-68
2022/01/09 10:01:31;;;;;;;19.23;12.40;;;;;;;-1.41;100.00;98780.67;1695817;84;21015;-67
2022/01/09 10:04:03;;;;;;;20.50;12.43;;;;;;;-1.40;100.00;98781.48;1667463;85;21435;-67
2022/01/09 10:06:44;;;;;;;18.67;11.63;;;;;;;-1.41;100.00;98787.86;1714288;83;21050;-67
2022/01/09 10:09:19;;;;;;;21.48;12.43;;;;;;;-1.37;100.00;98787.73;1703556;84;21577;-67
2022/01/09 10:11:54;;;;;;;20.25;12.53;;;;;;;-1.35;100.00;98779.82;1677004;84;21589;-67
2022/01/09 10:14:29;;;;;;;18.87;11.95;;;;;;;-1.35;100.00;98779.00;1663474;85;21054;-68
2022/01/09 10:17:16;;;;;;;18.27;11.70;;;;;;;-1.35;100.00;98777.15;1666279;85;21101;-67
2022/01/09 10:20:02;;;;;;;19.02;11.05;;;;;;;-1.36;100.00;98778.69;1658859;85;21077;-67
2022/01/09 10:22:40;;;;;;;20.57;12.25;;;;;;;-1.36;100.00;98762.16;1657897;86;21092;-68
2022/01/09 10:25:36;;;;;;;18.55;12.03;;;;;;;-1.36;100.00;98766.16;1682452;84;21103;-68
2022/01/09 10:28:14;;;;;;;19.40;12.20;;;;;;;-1.35;100.00;98763.80;1685017;84;21572;-67
2022/01/09 10:30:43;;;;;;;17.60;11.22;;;;;;;-1.31;100.00;98766.30;1694387;84;20991;-67
2022/01/09 10:33:12;;;;;;;21.50;12.28;;;;;;;-1.29;100.00;98758.09;1667940;84;21139;-67
2022/01/09 10:35:41;;;;;;;19.70;12.58;;;;;;;-1.28;100.00;98758.39;1690131;84;21027;-67
2022/01/09 10:38:16;;;;;;;21.57;13.13;;;;;;;-1.26;100.00;98748.30;1694293;84;21071;-68
2022/01/09 10:40:49;;;;;;;21.87;13.05;;;;;;;-1.23;100.00;98748.67;1698725;84;20960;-68
2022/01/09 10:43:19;;;;;;;22.58;13.10;;;;;;;-1.21;100.00;98742.62;1674294;86;21071;-67
2022/01/09 10:45:49;;;;;;;24.18;14.68;;;;;;;-1.19;100.00;98738.38;1733024;82;20971;-67
2022/01/09 10:48:20;;;;;;;24.05;15.35;;;;;;;-1.19;100.00;98735.19;1716973;82;21060;-66
2022/01/09 10:50:48;;;;;;;24.12;15.40;;;;;;;-1.21;100.00;98734.61;1724311;81;21517;-66
2022/01/09 10:53:31;;;;;;;24.40;14.65;;;;;;;-1.20;100.00;98727.38;1715564;82;21043;-67
2022/01/09 10:56:10;;;;;;;22.48;13.65;;;;;;;-1.18;100.00;98731.48;1722049;81;20996;-66
2022/01/09 10:58:43;;;;;;;20.43;12.43;;;;;;;-1.18;100.00;98726.66;1737467;81;21570;-66
2022/01/09 11:01:23;;;;;;;23.27;13.15;;;;;;;-1.20;100.00;98719.38;1731021;82;21028;-66
2022/01/09 11:04:04;;;;;;;25.97;15.00;;;;;;;-1.25;100.00;98725.40;1708187;84;21060;-66
2022/01/09 11:06:32;;;;;;;21.87;13.30;;;;;;;-1.33;100.00;98720.33;1711000;82;21071;-66
2022/01/09 11:09:00;;;;;;;29.42;16.93;;;;;;;-1.35;100.00;98722.93;1709527;83;21119;-67
2022/01/09 11:11:39;;;;;;;25.08;15.88;;;;;;;-1.37;100.00;98715.13;1709571;84;21545;-66
2022/01/09 11:14:07;;;;;;;;;;;;;;;-1.35;100.00;98706.40;1712688;82;21035;-67
2022/01/09 11:16:34;;;;;;;31.77;18.57;;;;;;;-1.36;100.00;98714.61;1729700;82;20155;-67
2022/01/09 11:19:06;;;;;;;34.43;19.30;;;;;;;-1.43;100.00;98708.01;1718374;82;21043;-66
2022/01/09 11:21:36;;;;;;;34.45;21.00;;;;;;;-1.44;100.00;98708.22;1737057;82;20992;-67
2022/01/09 11:24:20;;;;;;;32.38;20.23;;;;;;;-1.45;100.00;98703.94;1738124;82;21047;-65
2022/01/09 11:27:01;;;;;;;41.92;25.15;;;;;;;-1.46;100.00;98699.11;1738676;82;21075;-67